Time;durP1;ratioP1;P1;durP2;ratioP2;P2;SDS_P1;SDS_P2;PMS_P1;PMS_P2;Temp;Humidity;BMP_temperature;BMP_pressure;BME280_temperature;BME280_humidity;BME280_pressure;Samples;Min_cycle;Max_cycle;Signal;HPM_P1;HPM_P2
2021/06/06 00:01:12;;;;;;;;;;;13.90;99.90;;;;;;5135221;27;19919;-75
2021/06/06 00:03:39;;;;;;;;;;;13.90;99.90;;;;;;5134024;27;19911;-76
2021/06/06 00:06:07;;;;;;;;;;;13.80;99.90;;;;;;5135996;27;19903;-76
2021/06/06 00:08:33;;;;;;;;;;;13.80;99.90;;;;;;5135759;27;20299;-75
2021/06/06 00:11:02;;;;;;;;;;;13.90;99.90;;;;;;5133561;27;19907;-74
2021/06/06 00:13:27;;;;;;;;;;;13.80;99.90;;;;;;5134357;27;19994;-75
2021/06/06 00:15:53;;;;;;;;;;;13.80;99.90;;;;;;5134806;27;19961;-76
2021/06/06 00:18:19;;;;;;;;;;;13.80;99.90;;;;;;5135555;27;20330;-74
2021/06/06 00:20:44;;;;;;;;;;;13.80;99.90;;;;;;5135598;27;19903;-75
2021/06/06 00:23:10;;;;;;;;;;;13.80;99.90;;;;;;5137926;27;19903;-75
2021/06/06 00:25:37;;;;;;;;;;;13.70;99.90;;;;;;5133838;27;19904;-75
2021/06/06 00:28:02;;;;;;;;;;;13.80;99.90;;;;;;5134115;27;20449;-74
2021/06/06 00:30:28;;;;;;;;;;;13.70;99.90;;;;;;5134375;27;19947;-74
2021/06/06 00:32:53;;;;;;;;;;;13.70;99.90;;;;;;5133449;27;19911;-77
2021/06/06 00:35:19;;;;;;;;;;;13.80;99.90;;;;;;5134468;27;19910;-74
2021/06/06 00:37:48;;;;;;;;;;;13.80;99.90;;;;;;5134438;27;19923;-75
2021/06/06 00:40:15;;;;;;;;;;;13.80;99.90;;;;;;5133848;28;19904;-75
2021/06/06 00:42:41;;;;;;;;;;;13.80;99.90;;;;;;5134173;28;19903;-75
2021/06/06 00:45:09;;;;;;;;;;;13.70;99.90;;;;;;5133502;28;20373;-74
2021/06/06 00:47:34;;;;;;;;;;;13.70;99.90;;;;;;5133689;28;19911;-74
2021/06/06 00:50:00;;;;;;;;;;;13.70;99.90;;;;;;5134211;28;19933;-74
2021/06/06 00:52:25;;;;;;;;;;;13.70;99.90;;;;;;5133404;28;20251;-74
2021/06/06 00:54:51;;;;;;;;;;;13.70;99.90;;;;;;5134393;28;19904;-75
2021/06/06 00:57:26;;;;;;;;;;;13.70;99.90;;;;;;5134029;28;19957;-74
2021/06/06 01:00:00;;;;;;;;;;;13.70;99.90;;;;;;5133342;28;19903;-76
2021/06/06 01:02:26;;;;;;;;;;;13.70;99.90;;;;;;5134141;28;19907;-76
2021/06/06 01:04:51;;;;;;;;;;;13.70;99.90;;;;;;5134197;28;19956;-76
2021/06/06 01:07:17;;;;;;;;;;;13.70;99.90;;;;;;5133386;28;19956;-76
2021/06/06 01:09:42;;;;;;;;;;;13.70;99.90;;;;;;5133997;28;19903;-75
2021/06/06 01:12:15;;;;;;;;;;;13.70;99.90;;;;;;5134245;28;20200;-75
2021/06/06 01:14:42;;;;;;;;;;;13.70;99.90;;;;;;5132690;28;20279;-75
2021/06/06 01:17:09;;;;;;;;;;;13.70;99.90;;;;;;5133652;28;19903;-75
2021/06/06 01:19:38;;;;;;;;;;;13.70;99.90;;;;;;5133594;28;19922;-75
2021/06/06 01:22:10;;;;;;;;;;;13.70;99.90;;;;;;5133185;28;19903;-75
2021/06/06 01:24:38;;;;;;;;;;;13.80;99.90;;;;;;5133849;28;19926;-75
2021/06/06 01:27:12;;;;;;;;;;;13.80;99.90;;;;;;5133917;28;20258;-76
2021/06/06 01:29:50;;;;;;;;;;;13.70;99.90;;;;;;5135726;27;19903;-76
2021/06/06 01:32:16;;;;;;;;;;;13.70;99.90;;;;;;5137793;27;19911;-75
2021/06/06 01:34:43;;;;;;;;;;;13.70;99.90;;;;;;5136855;27;19937;-76
2021/06/06 01:37:14;;;;;;;;;;;13.70;99.90;;;;;;5137697;27;19931;-75
2021/06/06 01:39:42;;;;;;;;;;;13.70;99.90;;;;;;5137330;27;19903;-74
2021/06/06 01:42:16;;;;;;;;;;;13.70;99.90;;;;;;5136838;27;19927;-75
2021/06/06 01:44:43;;;;;;;;;;;13.70;99.90;;;;;;5137427;27;19903;-74
2021/06/06 01:47:35;;;;;;;;;;;13.70;99.90;;;;;;5137003;27;19997;-75
2021/06/06 01:50:11;;;;;;;;;;;13.70;99.90;;;;;;5131558;27;20301;-75
2021/06/06 01:52:38;;;;;;;;;;;13.40;99.90;;;;;;5137639;27;20299;-76
2021/06/06 01:55:08;;;;;;;;;;;13.70;99.90;;;;;;5137372;27;19953;-75
2021/06/06 01:57:34;;;;;;;;;;;13.70;99.90;;;;;;5136254;27;19903;-75
2021/06/06 02:00:00;;;;;;;;;;;13.70;99.90;;;;;;5137452;27;19998;-75
2021/06/06 02:02:26;;;;;;;;;;;13.70;99.90;;;;;;5136766;27;20010;-74
2021/06/06 02:04:52;;;;;;;;;;;13.70;99.90;;;;;;5136969;27;19938;-74
2021/06/06 02:07:23;;;;;;;;;;;13.70;99.90;;;;;;5137045;27;19911;-75
2021/06/06 02:09:51;;;;;;;;;;;13.70;99.90;;;;;;5135299;27;20284;-75
2021/06/06 02:12:17;;;;;;;;;;;13.70;99.90;;;;;;5136712;27;19956;-75
2021/06/06 02:14:44;;;;;;;;;;;13.70;99.90;;;;;;5137407;27;19908;-75
2021/06/06 02:17:12;;;;;;;;;;;13.70;99.90;;;;;;5135902;27;19907;-75
2021/06/06 02:19:39;;;;;;;;;;;13.60;99.90;;;;;;5136641;27;19914;-75
2021/06/06 02:22:07;;;;;;;;;;;13.60;99.90;;;;;;5136637;27;19911;-75
2021/06/06 02:24:34;;;;;;;;;;;13.70;99.90;;;;;;5137948;27;20367;-76
2021/06/06 02:27:03;;;;;;;;;;;13.60;99.90;;;;;;5136583;27;19964;-76
2021/06/06 02:29:41;;;;;;;;;;;13.60;99.90;;;;;;5138050;27;19997;-76
2021/06/06 02:32:25;;;;;;;;;;;13.60;99.90;;;;;;5135685;27;19907;-76
2021/06/06 02:35:05;;;;;;;;;;;13.60;99.90;;;;;;5136559;27;19914;-75
2021/06/06 02:37:31;;;;;;;;;;;13.60;99.90;;;;;;5136381;27;20016;-75
2021/06/06 02:39:58;;;;;;;;;;;13.60;99.90;;;;;;5135644;27;19943;-75
2021/06/06 02:42:32;;;;;;;;;;;13.60;99.90;;;;;;5136345;27;19910;-75
2021/06/06 02:45:00;;;;;;;;;;;13.60;99.90;;;;;;5135715;27;19912;-75
2021/06/06 02:47:31;;;;;;;;;;;13.50;99.90;;;;;;5136145;27;19915;-76
2021/06/06 02:49:59;;;;;;;;;;;13.50;99.90;;;;;;5135951;27;19903;-76
2021/06/06 02:52:44;;;;;;;;;;;13.50;99.90;;;;;;5135415;27;19903;-76
2021/06/06 02:55:15;;;;;;;;;;;13.40;99.90;;;;;;5135840;27;20351;-74
2021/06/06 02:57:42;;;;;;;;;;;13.40;99.90;;;;;;5136076;27;20085;-75
2021/06/06 03:00:13;;;;;;;;;;;13.40;99.90;;;;;;5135150;27;20366;-75
2021/06/06 03:02:42;;;;;;;;;;;13.40;99.90;;;;;;5135788;27;19903;-75
2021/06/06 03:05:08;;;;;;;;;;;13.30;99.90;;;;;;5135705;27;19907;-76
2021/06/06 03:07:38;;;;;;;;;;;13.40;99.90;;;;;;5134244;27;19911;-75
2021/06/06 03:10:07;;;;;;;;;;;13.40;99.90;;;;;;5135644;27;19925;-75
2021/06/06 03:12:33;;;;;;;;;;;13.40;99.90;;;;;;5135529;27;19998;-75
2021/06/06 03:15:00;;;;;;;;;;;13.40;99.90;;;;;;5134880;27;20339;-75
2021/06/06 03:17:27;;;;;;;;;;;13.40;99.90;;;;;;5135340;27;20270;-75
2021/06/06 03:19:55;;;;;;;;;;;13.40;99.90;;;;;;5134691;27;19911;-76
2021/06/06 03:22:23;;;;;;;;;;;13.30;99.90;;;;;;5135457;27;19917;-74
2021/06/06 03:24:51;;;;;;;;;;;13.30;99.90;;;;;;5135221;27;19982;-76
2021/06/06 03:27:18;;;;;;;;;;;13.20;99.90;;;;;;5134391;27;20275;-76
2021/06/06 03:29:56;;;;;;;;;;;13.20;99.90;;;;;;5134973;27;19986;-76
2021/06/06 03:32:25;;;;;;;;;;;13.20;99.90;;;;;;5135308;27;20254;-76
2021/06/06 03:34:51;;;;;;;;;;;13.10;99.90;;;;;;5134623;27;19935;-75
2021/06/06 03:37:17;;;;;;;;;;;13.10;99.90;;;;;;5135387;27;20319;-75
2021/06/06 03:39:42;;;;;;;;;;;13.10;99.90;;;;;;5135476;27;19903;-76
2021/06/06 03:42:08;;;;;;;;;;;13.00;99.90;;;;;;5134165;27;19930;-76
2021/06/06 03:44:33;;;;;;;;;;;13.00;99.90;;;;;;5135231;27;19903;-75
2021/06/06 03:46:59;;;;;;;;;;;12.90;99.90;;;;;;5134984;27;20017;-74
2021/06/06 03:49:25;;;;;;;;;;;12.90;99.90;;;;;;5134597;27;19907;-74
2021/06/06 03:51:51;;;;;;;;;;;12.80;99.90;;;;;;5134364;27;19964;-76
2021/06/06 03:54:17;;;;;;;;;;;12.80;99.90;;;;;;5135108;27;20343;-76
2021/06/06 03:56:43;;;;;;;;;;;12.70;99.90;;;;;;5134233;27;19903;-76
2021/06/06 03:59:11;;;;;;;;;;;12.70;99.90;;;;;;5135236;27;19990;-76
2021/06/06 04:01:36;;;;;;;;;;;12.60;99.90;;;;;;5134612;27;20419;-75
2021/06/06 04:04:02;;;;;;;;;;;12.60;99.90;;;;;;5133818;27;20005;-76
2021/06/06 04:06:27;;;;;;;;;;;12.60;99.90;;;;;;5135042;27;20039;-75
2021/06/06 04:08:53;;;;;;;;;;;12.60;99.90;;;;;;5134559;27;20017;-75
2021/06/06 04:11:19;;;;;;;;;;;12.60;99.90;;;;;;5133909;27;19911;-75
2021/06/06 04:13:44;;;;;;;;;;;12.60;99.90;;;;;;5134973;27;19904;-75
2021/06/06 04:16:10;;;;;;;;;;;12.60;99.90;;;;;;5134038;27;20382;-74
2021/06/06 04:18:35;;;;;;;;;;;12.60;99.90;;;;;;5134525;27;19942;-74
2021/06/06 04:21:04;;;;;;;;;;;12.70;99.90;;;;;;5136288;27;19928;-75
2021/06/06 04:23:29;;;;;;;;;;;12.60;99.90;;;;;;5134080;27;19903;-74
2021/06/06 04:25:55;;;;;;;;;;;12.60;99.90;;;;;;5134485;27;19914;-74
2021/06/06 04:28:21;;;;;;;;;;;12.70;99.90;;;;;;5134184;27;19911;-76
2021/06/06 04:30:47;;;;;;;;;;;12.70;99.90;;;;;;5134041;27;19903;-75
2021/06/06 04:33:13;;;;;;;;;;;12.70;99.90;;;;;;5134863;27;19903;-76
2021/06/06 04:35:40;;;;;;;;;;;12.70;99.90;;;;;;5135376;27;19945;-76
2021/06/06 04:38:06;;;;;;;;;;;12.70;99.90;;;;;;5134022;27;19991;-76
2021/06/06 04:40:32;;;;;;;;;;;12.70;99.90;;;;;;5134128;27;20007;-75
2021/06/06 04:42:58;;;;;;;;;;;12.80;99.90;;;;;;5134160;28;19907;-75
2021/06/06 04:45:24;;;;;;;;;;;12.80;99.90;;;;;;5132996;28;20366;-75
2021/06/06 04:47:49;;;;;;;;;;;12.90;99.90;;;;;;5133584;28;19960;-75
2021/06/06 04:50:16;;;;;;;;;;;12.90;99.90;;;;;;5134127;28;20278;-75
2021/06/06 04:52:41;;;;;;;;;;;12.90;99.90;;;;;;5133415;28;19910;-75
2021/06/06 04:55:09;;;;;;;;;;;12.90;99.90;;;;;;5133979;28;19990;-75
2021/06/06 04:57:34;;;;;;;;;;;13.00;99.90;;;;;;5133956;28;19903;-75
2021/06/06 05:00:00;;;;;;;;;;;13.00;99.90;;;;;;5133297;28;19956;-75
2021/06/06 05:02:25;;;;;;;;;;;13.00;99.90;;;;;;5134619;27;19912;-76
2021/06/06 05:04:51;;;;;;;;;;;13.00;99.90;;;;;;5138204;27;20370;-75
2021/06/06 05:07:16;;;;;;;;;;;13.10;99.90;;;;;;5137232;27;19911;-75
2021/06/06 05:09:42;;;;;;;;;;;13.20;99.90;;;;;;5138402;27;20339;-77
2021/06/06 05:12:08;;;;;;;;;;;13.20;99.90;;;;;;5138368;27;19904;-76
2021/06/06 05:14:33;;;;;;;;;;;13.20;99.90;;;;;;5136945;27;19961;-76
2021/06/06 05:16:58;;;;;;;;;;;13.30;99.90;;;;;;5138035;27;19911;-75
2021/06/06 05:19:24;;;;;;;;;;;13.30;99.90;;;;;;5137527;27;20374;-75
2021/06/06 05:21:49;;;;;;;;;;;13.30;99.90;;;;;;5137774;27;20231;-75
2021/06/06 05:24:15;;;;;;;;;;;13.30;99.90;;;;;;5137810;27;19914;-75
2021/06/06 05:26:40;;;;;;;;;;;13.40;99.90;;;;;;5136976;27;19918;-75
2021/06/06 05:29:06;;;;;;;;;;;13.50;99.90;;;;;;5138106;27;20289;-75
2021/06/06 05:31:32;;;;;;;;;;;13.50;99.90;;;;;;5137743;27;19903;-76
2021/06/06 05:33:58;;;;;;;;;;;13.60;99.90;;;;;;5136717;27;20321;-76
2021/06/06 05:36:23;;;;;;;;;;;13.60;99.90;;;;;;5137840;27;20351;-75
2021/06/06 05:38:49;;;;;;;;;;;13.70;99.90;;;;;;5137549;27;20258;-76
2021/06/06 05:41:14;;;;;;;;;;;13.70;99.90;;;;;;5136741;27;19903;-75
2021/06/06 05:43:40;;;;;;;;;;;13.70;99.90;;;;;;5137226;27;20342;-76
2021/06/06 05:46:07;;;;;;;;;;;13.80;99.90;;;;;;5137125;27;19907;-75
2021/06/06 05:48:33;;;;;;;;;;;13.90;99.90;;;;;;5136468;27;20080;-76
2021/06/06 05:51:01;;;;;;;;;;;13.90;99.90;;;;;;5137140;27;19919;-75
2021/06/06 05:53:28;;;;;;;;;;;14.00;99.90;;;;;;5137325;27;19910;-75
2021/06/06 05:55:54;;;;;;;;;;;14.00;99.90;;;;;;5136523;27;19903;-75
2021/06/06 05:58:19;;;;;;;;;;;14.00;99.90;;;;;;5137265;27;20385;-75
2021/06/06 06:00:46;;;;;;;;;;;14.10;99.90;;;;;;5137124;27;19990;-75
2021/06/06 06:03:12;;;;;;;;;;;14.20;99.90;;;;;;5136392;27;19911;-75
2021/06/06 06:05:37;;;;;;;;;;;14.20;99.90;;;;;;5137702;27;19904;-75
2021/06/06 06:08:15;;;;;;;;;;;14.30;99.90;;;;;;5136799;27;19957;-75
2021/06/06 06:10:41;;;;;;;;;;;14.30;99.90;;;;;;5135995;27;20350;-75
2021/06/06 06:13:06;;;;;;;;;;;14.40;99.90;;;;;;5136834;27;20262;-75
2021/06/06 06:15:32;;;;;;;;;;;14.40;99.90;;;;;;5136164;27;19903;-75
2021/06/06 06:17:57;;;;;;;;;;;14.50;99.90;;;;;;5136161;27;19904;-75
2021/06/06 06:20:23;;;;;;;;;;;14.50;99.90;;;;;;5136737;27;19904;-75
2021/06/06 06:22:48;;;;;;;;;;;14.60;99.90;;;;;;5117414;27;19907;-76
2021/06/06 06:25:15;;;;;;;;;;;14.60;99.90;;;;;;5136833;27;19926;-75
2021/06/06 06:27:41;;;;;;;;;;;14.70;99.90;;;;;;5136887;27;19936;-75
2021/06/06 06:30:08;;;;;;;;;;;14.80;99.90;;;;;;5136121;27;19994;-75
2021/06/06 06:32:33;;;;;;;;;;;14.80;99.90;;;;;;5136318;27;20359;-76
2021/06/06 06:34:59;;;;;;;;;;;14.80;99.90;;;;;;5117802;27;19909;-75
2021/06/06 06:37:25;;;;;;;;;;;14.80;99.90;;;;;;5135859;27;19903;-76
2021/06/06 06:39:51;;;;;;;;;;;15.00;99.90;;;;;;5136773;27;19903;-75
2021/06/06 06:42:19;;;;;;;;;;;15.00;99.90;;;;;;5137152;27;20277;-75
2021/06/06 06:44:44;;;;;;;;;;;15.00;99.90;;;;;;5135745;27;20266;-75
2021/06/06 06:47:10;;;;;;;;;;;15.10;99.90;;;;;;5135900;27;19915;-76
2021/06/06 06:49:38;;;;;;;;;;;15.10;99.90;;;;;;5136190;27;19946;-76
2021/06/06 06:52:04;;;;;;;;;;;15.20;99.90;;;;;;5135154;27;19915;-74
2021/06/06 06:54:29;;;;;;;;;;;15.20;99.90;;;;;;5135823;27;19904;-74
2021/06/06 06:56:55;;;;;;;;;;;15.20;99.90;;;;;;5135979;27;19911;-75
2021/06/06 06:59:26;;;;;;;;;;;15.20;99.90;;;;;;5135144;27;20306;-76
2021/06/06 07:01:53;;;;;;;;;;;15.30;99.90;;;;;;5136234;27;20262;-76
2021/06/06 07:04:18;;;;;;;;;;;15.30;99.90;;;;;;5136065;27;20342;-76
2021/06/06 07:06:43;;;;;;;;;;;15.30;99.90;;;;;;5134909;27;19903;-75
2021/06/06 07:09:09;;;;;;;;;;;15.30;99.90;;;;;;5135691;27;19907;-75
2021/06/06 07:11:34;;;;;;;;;;;15.40;99.90;;;;;;5135923;27;19915;-75
2021/06/06 07:14:00;;;;;;;;;;;15.50;99.90;;;;;;5135425;27;19904;-76
2021/06/06 07:16:26;;;;;;;;;;;15.50;99.90;;;;;;5135977;27;19907;-76
2021/06/06 07:18:51;;;;;;;;;;;15.60;99.90;;;;;;5136246;27;19903;-76
2021/06/06 07:21:21;;;;;;;;;;;15.50;99.90;;;;;;5134699;27;19910;-75
2021/06/06 07:23:50;;;;;;;;;;;15.60;99.90;;;;;;5135793;27;19903;-75
2021/06/06 07:26:19;;;;;;;;;;;15.70;99.90;;;;;;5133804;27;19960;-75
2021/06/06 07:28:45;;;;;;;;;;;15.70;99.90;;;;;;5135799;27;19912;-76
2021/06/06 07:31:11;;;;;;;;;;;15.60;99.90;;;;;;5135677;27;19904;-76
2021/06/06 07:33:38;;;;;;;;;;;15.60;99.90;;;;;;5134592;27;19910;-76
2021/06/06 07:36:05;;;;;;;;;;;15.70;99.90;;;;;;5135330;27;19903;-75
2021/06/06 07:38:30;;;;;;;;;;;15.70;99.90;;;;;;5135343;27;19904;-75
2021/06/06 07:40:57;;;;;;;;;;;15.80;99.90;;;;;;5134790;27;19947;-75
2021/06/06 07:43:22;;;;;;;;;;;15.90;99.90;;;;;;5135571;27;19903;-75
2021/06/06 07:45:48;;;;;;;;;;;15.90;99.90;;;;;;5135141;27;19903;-75
2021/06/06 07:48:13;;;;;;;;;;;15.90;99.90;;;;;;5133862;27;19926;-75
2021/06/06 07:50:40;;;;;;;;;;;15.90;99.90;;;;;;5134954;27;19907;-75
2021/06/06 07:53:06;;;;;;;;;;;16.00;99.90;;;;;;5135023;27;20347;-75
2021/06/06 07:55:32;;;;;;;;;;;16.10;99.90;;;;;;5134100;27;19938;-76
2021/06/06 07:57:58;;;;;;;;;;;16.10;99.90;;;;;;5134868;27;19904;-75
2021/06/06 08:00:25;;;;;;;;;;;16.20;99.90;;;;;;5134851;27;19903;-75
2021/06/06 08:02:51;;;;;;;;;;;16.20;99.90;;;;;;5133751;27;19903;-75
2021/06/06 08:05:17;;;;;;;;;;;16.30;99.90;;;;;;5134583;27;20002;-74
2021/06/06 08:07:42;;;;;;;;;;;16.30;99.90;;;;;;5134418;27;20095;-74
2021/06/06 08:10:09;;;;;;;;;;;16.40;99.90;;;;;;5133525;27;19998;-75
2021/06/06 08:12:34;;;;;;;;;;;16.50;99.90;;;;;;5134390;27;19903;-75
2021/06/06 08:15:00;;;;;;;;;;;16.50;99.90;;;;;;5134220;27;19903;-75
2021/06/06 08:17:25;;;;;;;;;;;16.60;99.90;;;;;;5133438;27;19907;-75
2021/06/06 08:19:51;;;;;;;;;;;16.60;99.90;;;;;;5134293;27;19916;-75
2021/06/06 08:22:17;;;;;;;;;;;16.70;99.90;;;;;;5133908;27;19903;-77
2021/06/06 08:24:43;;;;;;;;;;;16.70;99.90;;;;;;5134620;27;20357;-75
2021/06/06 08:27:08;;;;;;;;;;;16.80;99.90;;;;;;5134496;27;19958;-75
2021/06/06 08:29:34;;;;;;;;;;;16.90;99.90;;;;;;5133966;27;20387;-75
2021/06/06 08:32:00;;;;;;;;;;;16.90;99.90;;;;;;5134455;27;19911;-76
2021/06/06 08:34:26;;;;;;;;;;;17.00;99.90;;;;;;5135740;27;20354;-76
2021/06/06 08:36:52;;;;;;;;;;;17.10;99.90;;;;;;5133602;27;19903;-75
2021/06/06 08:39:22;;;;;;;;;;;17.20;99.90;;;;;;5134059;27;20378;-74
2021/06/06 08:41:47;;;;;;;;;;;17.10;99.90;;;;;;5134245;27;19964;-75
2021/06/06 08:44:22;;;;;;;;;;;17.20;99.90;;;;;;5134003;28;19954;-75
2021/06/06 08:47:23;;;;;;;;;;;17.20;99.90;;;;;;5134278;28;19915;-75
2021/06/06 08:49:50;;;;;;;;;;;17.30;99.90;;;;;;5032645;28;20020;-76
2021/06/06 08:52:16;;;;;;;;;;;17.40;99.90;;;;;;5113390;28;19907;-76
2021/06/06 08:55:01;;;;;;;;;;;17.40;99.90;;;;;;5134155;28;19904;-75
2021/06/06 08:57:36;;;;;;;;;;;17.30;99.90;;;;;;5081092;28;19911;-75
2021/06/06 09:00:07;;;;;;;;;;;17.30;99.90;;;;;;5134203;28;19903;-75
2021/06/06 09:02:37;;;;;;;;;;;17.40;99.90;;;;;;5133936;28;19956;-75
2021/06/06 09:05:05;;;;;;;;;;;17.60;99.90;;;;;;5133634;28;19911;-77
2021/06/06 09:07:35;;;;;;;;;;;17.60;99.90;;;;;;5134217;28;20005;-74
2021/06/06 09:10:05;;;;;;;;;;;17.70;99.90;;;;;;5133913;28;20316;-74
2021/06/06 09:12:30;;;;;;;;;;;17.80;99.90;;;;;;5133065;28;19904;-74
2021/06/06 09:14:56;;;;;;;;;;;17.90;99.90;;;;;;5134516;28;20270;-75
2021/06/06 09:17:42;;;;;;;;;;;17.90;99.90;;;;;;5134177;28;19903;-75
2021/06/06 09:20:21;;;;;;;;;;;17.90;99.90;;;;;;5132970;28;19941;-75
2021/06/06 09:22:46;;;;;;;;;;;18.00;99.90;;;;;;5134081;28;19971;-76
2021/06/06 09:25:18;;;;;;;;;;;18.00;99.90;;;;;;5134013;28;20343;-76
2021/06/06 09:27:43;;;;;;;;;;;18.10;99.90;;;;;;5133307;28;19911;-76
2021/06/06 09:30:15;;;;;;;;;;;18.20;99.90;;;;;;5134292;28;19903;-76
2021/06/06 09:32:42;;;;;;;;;;;18.20;99.90;;;;;;5133295;28;19917;-76
2021/06/06 09:35:26;;;;;;;;;;;18.20;99.90;;;;;;5134104;28;19943;-75
2021/06/06 09:38:04;;;;;;;;;;;18.10;99.90;;;;;;5133619;28;19911;-76
2021/06/06 09:40:35;;;;;;;;;;;18.10;99.90;;;;;;5132665;28;19904;-76
2021/06/06 09:43:00;;;;;;;;;;;18.10;99.90;;;;;;5133298;28;19947;-74
2021/06/06 09:45:28;;;;;;;;;;;18.30;99.90;;;;;;5133815;28;19904;-76
2021/06/06 09:47:58;;;;;;;;;;;18.50;99.90;;;;;;5132318;28;19923;-76
2021/06/06 09:50:24;;;;;;;;;;;18.50;99.90;;;;;;5135683;27;20342;-76
2021/06/06 09:52:51;;;;;;;;;;;18.60;99.90;;;;;;5137396;27;19903;-76
2021/06/06 09:55:19;;;;;;;;;;;18.60;99.90;;;;;;5136415;27;19907;-76
2021/06/06 09:57:45;;;;;;;;;;;18.60;99.90;;;;;;5137150;27;19903;-76
2021/06/06 10:00:33;;;;;;;;;;;18.70;99.90;;;;;;5137323;27;19993;-76
2021/06/06 10:03:05;;;;;;;;;;;18.60;99.90;;;;;;5135988;27;19903;-74
2021/06/06 10:05:36;;;;;;;;;;;18.70;99.90;;;;;;5136807;27;19910;-74
2021/06/06 10:08:03;;;;;;;;;;;18.80;99.90;;;;;;5136212;27;19971;-76
2021/06/06 10:10:31;;;;;;;;;;;18.70;99.90;;;;;;5136955;27;19937;-76
2021/06/06 10:12:58;;;;;;;;;;;18.60;99.90;;;;;;5136950;27;19903;-73
2021/06/06 10:15:29;;;;;;;;;;;18.70;99.90;;;;;;5135966;27;20240;-76
2021/06/06 10:17:59;;;;;;;;;;;18.80;99.90;;;;;;5136595;27;20331;-76
2021/06/06 10:20:30;;;;;;;;;;;18.90;99.90;;;;;;5136708;27;19910;-75
2021/06/06 10:23:02;;;;;;;;;;;19.00;99.90;;;;;;5135913;27;19908;-75
2021/06/06 10:25:34;;;;;;;;;;;19.10;99.90;;;;;;5136189;27;19907;-75
2021/06/06 10:28:03;;;;;;;;;;;19.10;99.90;;;;;;5136647;27;19979;-75
2021/06/06 10:30:30;;;;;;;;;;;19.20;99.90;;;;;;5135464;27;19949;-74
2021/06/06 10:33:05;;;;;;;;;;;19.30;99.90;;;;;;5136745;27;19994;-76
2021/06/06 10:35:30;;;;;;;;;;;19.30;99.90;;;;;;5136325;27;19903;-74
2021/06/06 10:37:58;;;;;;;;;;;19.40;99.90;;;;;;5135637;27;20056;-75
2021/06/06 10:40:26;;;;;;;;;;;19.30;99.90;;;;;;5136646;27;19903;-76
2021/06/06 10:42:59;;;;;;;;;;;19.30;99.90;;;;;;5136246;27;19903;-77
2021/06/06 10:45:30;;;;;;;;;;;19.40;99.90;;;;;;5136279;27;19903;-75
2021/06/06 10:48:07;;;;;;;;;;;19.60;99.90;;;;;;5135588;27;19965;-76
2021/06/06 10:50:40;;;;;;;;;;;19.60;99.90;;;;;;5136566;27;19956;-76
2021/06/06 10:53:26;;;;;;;;;;;19.50;99.90;;;;;;5136843;27;19928;-76
2021/06/06 10:56:00;;;;;;;;;;;19.60;99.90;;;;;;5138241;27;19909;-76
2021/06/06 10:58:55;;;;;;;;;;;19.50;99.90;;;;;;5135920;27;20350;-76
2021/06/06 11:01:22;;;;;;;;;;;19.60;99.90;;;;;;5135981;27;19909;-75
2021/06/06 11:03:53;;;;;;;;;;;19.70;99.90;;;;;;5135776;27;19903;-75
2021/06/06 11:06:25;;;;;;;;;;;19.80;98.80;;;;;;5135056;27;20317;-75
2021/06/06 11:08:51;;;;;;;;;;;19.90;98.90;;;;;;5135766;27;19911;-75
2021/06/06 11:11:26;;;;;;;;;;;20.00;98.90;;;;;;5135022;27;19904;-75
2021/06/06 11:14:02;;;;;;;;;;;20.00;98.90;;;;;;5135646;27;19914;-75
2021/06/06 11:16:34;;;;;;;;;;;20.20;99.10;;;;;;5135636;27;19907;-75
2021/06/06 11:19:01;;;;;;;;;;;20.30;98.90;;;;;;5134667;27;19903;-75
2021/06/06 11:21:32;;;;;;;;;;;20.20;97.70;;;;;;5135602;27;20354;-76
2021/06/06 11:23:59;;;;;;;;;;;20.00;98.40;;;;;;5135667;27;19903;-74
2021/06/06 11:26:44;;;;;;;;;;;20.10;98.70;;;;;;5116344;27;19903;-75
2021/06/06 11:29:12;;;;;;;;;;;20.20;98.60;;;;;;5135581;27;19912;-75
2021/06/06 11:31:41;;;;;;;;;;;20.40;97.90;;;;;;5135155;27;19907;-75
2021/06/06 11:34:25;;;;;;;;;;;20.40;97.70;;;;;;5134359;27;19904;-75
2021/06/06 11:36:59;;;;;;;;;;;20.50;98.20;;;;;;5135017;27;19903;-76
2021/06/06 11:39:27;;;;;;;;;;;20.50;97.50;;;;;;5134440;27;19911;-75
2021/06/06 11:41:53;;;;;;;;;;;20.60;96.80;;;;;;5135122;27;20019;-75
2021/06/06 11:44:27;;;;;;;;;;;20.60;97.00;;;;;;5135129;27;20362;-76
2021/06/06 11:46:58;;;;;;;;;;;20.70;96.50;;;;;;5133955;27;20279;-75
2021/06/06 11:49:29;;;;;;;;;;;20.70;96.10;;;;;;5135073;27;19903;-75
2021/06/06 11:51:56;;;;;;;;;;;20.70;95.50;;;;;;5135171;27;19910;-75
2021/06/06 11:54:26;;;;;;;;;;;20.70;95.90;;;;;;5133944;27;20377;-75
2021/06/06 11:56:54;;;;;;;;;;;20.80;95.20;;;;;;5135108;27;19964;-75
2021/06/06 11:59:23;;;;;;;;;;;20.90;94.90;;;;;;5134917;27;19994;-75
2021/06/06 12:01:55;;;;;;;;;;;21.00;94.90;;;;;;5133986;27;19903;-75
2021/06/06 12:04:26;;;;;;;;;;;21.10;94.40;;;;;;5134686;27;19903;-75
2021/06/06 12:06:52;;;;;;;;;;;21.30;93.80;;;;;;5134637;27;20355;-75
2021/06/06 12:09:18;;;;;;;;;;;21.40;92.50;;;;;;5134170;27;19918;-75
2021/06/06 12:11:45;;;;;;;;;;;21.40;92.60;;;;;;5134547;27;19903;-76
2021/06/06 12:14:13;;;;;;;;;;;21.40;92.60;;;;;;5134194;27;19979;-76
2021/06/06 12:16:47;;;;;;;;;;;21.40;91.70;;;;;;5133842;27;19904;-75
2021/06/06 12:19:14;;;;;;;;;;;21.30;93.30;;;;;;5134282;27;19935;-76
2021/06/06 12:21:41;;;;;;;;;;;21.40;92.80;;;;;;5133608;27;20293;-76
2021/06/06 12:24:11;;;;;;;;;;;21.40;92.50;;;;;;5134457;27;19943;-76
2021/06/06 12:26:39;;;;;;;;;;;21.50;91.70;;;;;;5135029;27;19964;-76
2021/06/06 12:29:05;;;;;;;;;;;21.60;89.40;;;;;;5133738;27;19911;-76
2021/06/06 12:31:35;;;;;;;;;;;21.60;90.40;;;;;;5134593;27;19904;-76
2021/06/06 12:34:20;;;;;;;;;;;21.80;90.10;;;;;;5134273;27;19948;-76
2021/06/06 12:36:46;;;;;;;;;;;21.80;88.90;;;;;;5133435;27;19911;-76
2021/06/06 12:39:14;;;;;;;;;;;22.00;87.80;;;;;;5134286;27;19911;-75
2021/06/06 12:41:41;;;;;;;;;;;22.00;85.30;;;;;;5134142;27;20271;-76
2021/06/06 12:44:07;;;;;;;;;;;22.10;85.40;;;;;;5133576;27;19903;-75
2021/06/06 12:46:42;;;;;;;;;;;22.10;84.40;;;;;;5134679;28;20006;-76
2021/06/06 12:49:08;;;;;;;;;;;22.20;84.60;;;;;;5136351;28;19963;-76
2021/06/06 12:51:33;;;;;;;;;;;22.30;84.10;;;;;;5133382;28;19909;-75
2021/06/06 12:54:19;;;;;;;;;;;22.10;83.10;;;;;;5133893;28;20409;-75
2021/06/06 12:56:46;;;;;;;;;;;22.30;82.80;;;;;;5133979;28;19903;-76
2021/06/06 12:59:18;;;;;;;;;;;22.40;81.70;;;;;;5135981;28;19956;-75
2021/06/06 13:01:44;;;;;;;;;;;22.50;80.10;;;;;;5134915;28;19903;-76
2021/06/06 13:04:15;;;;;;;;;;;22.60;79.50;;;;;;5134945;28;19956;-75
2021/06/06 13:06:41;;;;;;;;;;;22.50;80.10;;;;;;5134003;28;19903;-75
2021/06/06 13:09:08;;;;;;;;;;;22.60;81.20;;;;;;5133695;28;20023;-75
2021/06/06 13:11:37;;;;;;;;;;;22.60;79.60;;;;;;5133052;28;19903;-74
2021/06/06 13:14:15;;;;;;;;;;;22.80;78.20;;;;;;5133928;28;19904;-76
2021/06/06 13:16:45;;;;;;;;;;;22.80;77.70;;;;;;5133702;28;20408;-75
2021/06/06 13:19:13;;;;;;;;;;;22.60;78.00;;;;;;5133311;28;19950;-75
2021/06/06 13:21:40;;;;;;;;;;;22.60;78.20;;;;;;5133858;28;19903;-75
2021/06/06 13:24:17;;;;;;;;;;;22.60;78.40;;;;;;5135329;27;19911;-76
2021/06/06 13:26:43;;;;;;;;;;;22.90;79.20;;;;;;5137116;27;19903;-75
2021/06/06 13:29:13;;;;;;;;;;;23.20;77.50;;;;;;5137472;27;20385;-74
2021/06/06 13:31:40;;;;;;;;;;;23.00;70.50;;;;;;5137440;27;19993;-74
2021/06/06 13:34:08;;;;;;;;;;;23.00;70.90;;;;;;5137133;27;19995;-74
2021/06/06 13:36:34;;;;;;;;;;;23.10;70.50;;;;;;5137338;27;20395;-74
2021/06/06 13:39:11;;;;;;;;;;;23.00;70.10;;;;;;5136617;27;19956;-75
2021/06/06 13:41:36;;;;;;;;;;;23.10;70.30;;;;;;5137469;27;19904;-74
2021/06/06 13:44:02;;;;;;;;;;;23.20;70.50;;;;;;5137415;27;20262;-75
2021/06/06 13:46:28;;;;;;;;;;;23.30;70.00;;;;;;5136653;27;19956;-75
2021/06/06 13:48:53;;;;;;;;;;;23.40;69.50;;;;;;5137145;27;20026;-75
2021/06/06 13:51:19;;;;;;;;;;;23.60;69.30;;;;;;5137336;27;19990;-75
2021/06/06 13:53:44;;;;;;;;;;;23.50;68.00;;;;;;5136321;27;19912;-74
2021/06/06 13:56:09;;;;;;;;;;;23.60;66.10;;;;;;5137196;27;19903;-74
2021/06/06 13:58:35;;;;;;;;;;;23.60;66.40;;;;;;5137286;27;20244;-74
2021/06/06 14:01:00;;;;;;;;;;;23.80;66.30;;;;;;5136398;27;19910;-75
2021/06/06 14:03:30;;;;;;;;;;;24.00;65.30;;;;;;5136958;27;19990;-75
2021/06/06 14:05:56;;;;;;;;;;;24.20;66.90;;;;;;5136972;27;19910;-75
2021/06/06 14:08:22;;;;;;;;;;;24.00;66.20;;;;;;5135980;27;20335;-76
2021/06/06 14:10:48;;;;;;;;;;;23.90;65.90;;;;;;5136876;27;19922;-76
2021/06/06 14:13:22;;;;;;;;;;;24.00;68.30;;;;;;5136845;27;19907;-75
2021/06/06 14:15:48;;;;;;;;;;;23.80;65.20;;;;;;5135781;27;19903;-76
2021/06/06 14:18:14;;;;;;;;;;;23.70;64.90;;;;;;5136822;27;19943;-75
2021/06/06 14:20:41;;;;;;;;;;;23.80;64.20;;;;;;5136888;27;19935;-76
2021/06/06 14:23:06;;;;;;;;;;;23.70;64.10;;;;;;5135873;27;20394;-75